Time;durP1;ratioP1;P1;durP2;ratioP2;P2;SDS_P1;SDS_P2;PMS_P1;PMS_P2;Temp;Humidity;BMP_temperature;BMP_pressure;BME280_temperature;BME280_humidity;BME280_pressure;Samples;Min_cycle;Max_cycle;Signal;HPM_P1;HPM_P2
2023/11/03 11:57:40;;;;;;;15.10;6.20;;;;;;;-147.86;100.00;48765.81;103502;1280;613400;-47
2023/11/03 12:00:11;;;;;;;8.70;4.40;;;;;;;-147.86;100.00;48807.77;104882;1269;122993;-45
2023/11/03 12:02:39;;;;;;;6.40;4.30;;;;;;;-147.86;100.00;48772.09;105214;1264;59945;-47
2023/11/03 12:05:07;;;;;;;9.20;5.20;;;;;;;-147.86;100.00;48774.44;105226;1264;72135;-47
2023/11/03 12:07:34;;;;;;;12.90;6.20;;;;;;;-147.86;100.00;48752.48;105155;1264;64001;-52
2023/11/03 12:10:03;;;;;;;17.60;6.30;;;;;;;-147.86;100.00;48733.26;105220;1269;73538;-49
2023/11/03 12:12:30;;;;;;;12.80;6.60;;;;;;;-147.86;100.00;48725.82;105477;1263;61658;-49
2023/11/03 12:15:00;;;;;;;12.70;5.60;;;;;;;-147.86;100.00;48697.20;105301;1264;61089;-51
2023/11/03 12:17:28;;;;;;;10.00;6.10;;;;;;;-147.86;100.00;48708.17;105298;1268;73041;-49
2023/11/03 12:19:56;;;;;;;11.10;6.40;;;;;;;-147.86;100.00;48694.84;105274;1268;66033;-50
2023/11/03 12:22:24;;;;;;;10.80;5.20;;;;;;;-147.86;100.00;48694.05;105113;1264;72870;-49
2023/11/03 12:24:55;;;;;;;6.40;4.70;;;;;;;-147.86;100.00;48715.23;105023;1264;62499;-49
2023/11/03 12:27:23;;;;;;;6.40;4.60;;;;;;;-147.86;100.00;48693.27;105224;1264;60057;-46
2023/11/03 12:29:51;;;;;;;11.00;5.30;;;;;;;-147.86;100.00;48704.25;105122;1264;73181;-47
2023/11/03 12:32:18;;;;;;;13.30;5.60;;;;;;;-147.86;100.00;48712.09;105124;1268;65769;-49
2023/11/03 12:34:45;;;;;;;9.80;5.40;;;;;;;-147.86;100.00;48702.68;104999;1264;72959;-47
2023/11/03 12:37:12;;;;;;;13.10;5.40;;;;;;;-147.86;100.00;48703.46;105159;1264;60897;-45
2023/11/03 12:40:06;;;;;;;7.60;5.00;;;;;;;-147.86;100.00;48705.82;105118;1263;61372;-47
2023/11/03 12:42:41;;;;;;;13.30;6.30;;;;;;;-147.86;100.00;48744.64;105148;1264;73775;-46
2023/11/03 12:45:11;;;;;;;12.00;6.10;;;;;;;-147.86;100.00;48755.23;105144;1269;66768;-48
2023/11/03 12:47:39;;;;;;;17.10;6.40;;;;;;;-147.86;100.00;48753.66;104930;1267;73006;-47
2023/11/03 12:50:28;;;;;;;17.30;6.40;;;;;;;-147.86;100.00;48743.85;104866;1266;62040;-47
2023/11/03 12:52:55;;;;;;;12.20;5.80;;;;;;;-147.86;100.00;48746.21;104898;1266;60332;-49
2023/11/03 12:55:25;;;;;;;11.80;6.00;;;;;;;-147.86;100.00;48749.73;104885;1266;74052;-49
2023/11/03 12:57:52;;;;;;;10.80;7.50;;;;;;;-147.86;100.00;48757.97;105074;1266;66516;-46
2023/11/03 13:00:23;;;;;;;11.20;6.00;;;;;;;-147.86;100.00;48774.83;104877;1267;72641;-45
2023/11/03 13:02:52;;;;;;;11.90;5.50;;;;;;;-147.86;100.00;48802.67;104940;1267;60698;-47
2023/11/03 13:05:19;;;;;;;9.30;5.80;;;;;;;-147.86;100.00;48817.97;104834;1267;60242;-49
2023/11/03 13:07:50;;;;;;;15.10;6.20;;;;;;;-147.86;100.00;48852.09;104911;1267;72442;-49
2023/11/03 13:10:17;;;;;;;10.30;6.90;;;;;;;-147.86;100.00;48889.73;105531;1261;63912;-51
2023/11/03 13:12:45;;;;;;;9.80;6.20;;;;;;;-147.86;100.00;48908.95;105490;1260;72534;-47
2023/11/03 13:15:12;;;;;;;10.30;6.90;;;;;;;-147.86;100.00;48942.28;105554;1262;62638;-47
2023/11/03 13:17:40;;;;;;;12.40;6.90;;;;;;;-147.86;100.00;48960.31;105493;1259;60946;-48
2023/11/03 13:20:18;;;;;;;12.10;6.70;;;;;;;-147.86;100.00;49002.67;105511;1259;72552;-49
2023/11/03 13:22:48;;;;;;;10.10;6.60;;;;;;;-147.86;100.00;49036.79;105503;1260;64743;-48
2023/11/03 13:25:17;;;;;;;16.50;7.20;;;;;;;-147.86;100.00;49104.63;105539;1260;73640;-50
2023/11/03 13:27:44;;;;;;;14.90;7.30;;;;;;;-147.86;100.00;49137.18;105506;1260;62512;-50
2023/11/03 13:30:11;;;;;;;16.90;7.50;;;;;;;-147.86;100.00;49187.37;105468;1262;60971;-48
2023/11/03 13:32:44;;;;;;;12.30;7.50;;;;;;;-147.86;100.00;49241.10;105382;1262;73799;-53
2023/11/03 13:35:14;;;;;;;10.30;8.00;;;;;;;-147.86;100.00;49301.89;105205;1262;65293;-49
2023/11/03 13:37:40;;;;;;;21.40;8.20;;;;;;;-147.86;100.00;49381.11;105385;1260;72064;-50
2023/11/03 13:40:08;;;;;;;22.10;11.80;;;;;;;-147.86;100.00;49426.21;105586;1261;62161;-53
2023/11/03 13:42:36;;;;;;;28.10;13.80;;;;;;;-147.86;100.00;49482.30;105550;1257;60493;-50
2023/11/03 13:45:04;;;;;;;18.40;10.60;;;;;;;-147.86;100.00;49519.95;105555;1261;72329;-48
2023/11/03 13:47:34;;;;;;;111.00;47.60;;;;;;;-147.86;100.00;49594.47;105644;1260;65712;-49
2023/11/03 13:50:01;;;;;;;24.40;11.50;;;;;;;-147.86;100.00;49651.34;105602;1257;73637;-49
2023/11/03 13:52:44;;;;;;;146.30;86.90;;;;;;;-147.86;100.00;49694.48;105606;1262;63143;-50
2023/11/03 13:55:13;;;;;;;30.60;15.40;;;;;;;-147.86;100.00;49731.74;105544;1259;60860;-51
2023/11/03 13:57:42;;;;;;;21.20;10.60;;;;;;;-147.86;100.00;49779.20;105573;1262;73415;-47
2023/11/03 14:00:13;;;;;;;13.90;8.60;;;;;;;-147.86;100.00;49801.95;105600;1259;66327;-48
2023/11/03 14:02:41;;;;;;;21.40;10.70;;;;;;;-147.86;100.00;49852.16;105546;1257;73677;-48
2023/11/03 14:05:10;;;;;;;21.00;9.50;;;;;;;-147.86;100.00;49875.70;105556;1262;62061;-51
2023/11/03 14:07:39;;;;;;;16.20;8.80;;;;;;;-147.86;100.00;49910.61;105574;1261;59624;-47
2023/11/03 14:10:09;;;;;;;18.10;9.40;;;;;;;-147.86;100.00;49939.63;105579;1261;73065;-49
2023/11/03 14:12:40;;;;;;;28.60;9.80;;;;;;;-147.86;100.00;49951.00;105613;1261;64721;-47
2023/11/03 14:15:10;;;;;;;21.30;9.80;;;;;;;-147.86;100.00;49978.46;105593;1257;72622;-50
2023/11/03 14:17:39;;;;;;;18.10;9.50;;;;;;;-147.86;100.00;50011.02;105450;1262;63083;-48
2023/11/03 14:20:08;;;;;;;13.80;9.40;;;;;;;-147.86;100.00;50001.99;105588;1257;60794;-49
2023/11/03 14:22:36;;;;;;;14.20;9.80;;;;;;;-147.86;100.00;50025.53;105624;1258;73994;-49
2023/11/03 14:25:03;;;;;;;11.30;8.90;;;;;;;-147.86;100.00;50032.98;105582;1261;65520;-46
2023/11/03 14:27:34;;;;;;;19.10;9.60;;;;;;;-147.86;100.00;50049.46;105614;1257;72454;-49
2023/11/03 14:30:00;;;;;;;11.90;8.40;;;;;;;-147.86;100.00;50069.07;105553;1263;62275;-51
2023/11/03 14:32:28;;;;;;;13.90;8.70;;;;;;;-147.86;100.00;50099.67;105608;1257;60547;-48
2023/11/03 14:34:55;;;;;;;14.30;7.70;;;;;;;-147.86;100.00;50090.65;105523;1260;73524;-51
2023/11/03 14:37:23;;;;;;;24.50;10.90;;;;;;;-147.86;100.00;50114.18;105577;1262;64565;-50
2023/11/03 14:39:50;;;;;;;13.60;9.70;;;;;;;-147.86;100.00;50121.24;105557;1259;71676;-47
2023/11/03 14:42:18;;;;;;;14.20;8.20;;;;;;;-147.86;100.00;50120.06;105632;1262;61106;-50
2023/11/03 14:44:46;;;;;;;15.30;9.50;;;;;;;-147.86;100.00;50140.07;105555;1257;60243;-48
2023/11/03 14:47:13;;;;;;;16.70;9.10;;;;;;;-147.86;100.00;50160.47;105581;1261;73146;-47
2023/11/03 14:49:41;;;;;;;15.20;8.60;;;;;;;-147.86;100.00;50128.30;105531;1262;66985;-51
2023/11/03 14:52:10;;;;;;;12.40;8.60;;;;;;;-147.86;100.00;50158.11;105561;1257;72639;-48
2023/11/03 14:54:37;;;;;;;14.10;8.90;;;;;;;-147.86;100.00;50179.69;105608;1262;62106;-49
2023/11/03 14:57:04;;;;;;;10.20;8.60;;;;;;;-147.86;100.00;50184.79;105602;1257;60319;-52
2023/11/03 14:59:34;;;;;;;13.80;8.80;;;;;;;-147.86;100.00;50180.48;105569;1261;73003;-51
2023/11/03 15:02:03;;;;;;;13.50;8.40;;;;;;;-147.86;100.00;50184.00;105591;1261;65153;-49
2023/11/03 15:04:30;;;;;;;14.70;9.20;;;;;;;-147.86;100.00;50182.04;105549;1262;71414;-48
2023/11/03 15:06:57;;;;;;;19.40;9.40;;;;;;;-147.86;100.00;50221.27;105618;1259;62962;-52
2023/11/03 15:09:25;;;;;;;10.00;7.80;;;;;;;-147.86;100.00;50205.58;105641;1257;60376;-51
2023/11/03 15:11:53;;;;;;;15.60;8.90;;;;;;;-147.86;100.00;50223.63;105699;1259;73178;-49
2023/11/03 15:14:20;;;;;;;13.80;9.10;;;;;;;-147.86;100.00;50228.33;105640;1258;66679;-50
2023/11/03 15:16:47;;;;;;;11.80;8.40;;;;;;;-147.86;100.00;50242.85;105635;1257;73129;-50
2023/11/03 15:19:14;;;;;;;12.90;8.30;;;;;;;-147.86;100.00;50231.46;105654;1259;62016;-50
2023/11/03 15:21:41;;;;;;;11.00;8.30;;;;;;;-147.86;100.00;50239.71;105623;1254;60628;-51
2023/11/03 15:24:09;;;;;;;12.90;7.90;;;;;;;-147.86;100.00;50238.14;105678;1259;72968;-51
2023/11/03 15:26:36;;;;;;;9.80;7.30;;;;;;;-147.86;100.00;50232.65;105684;1258;64954;-51
2023/11/03 15:29:04;;;;;;;13.10;7.80;;;;;;;-147.86;100.00;50235.00;105641;1257;74286;-53
2023/11/03 15:31:31;;;;;;;9.40;7.80;;;;;;;-147.86;100.00;50247.95;105675;1259;61876;-51
2023/11/03 15:33:58;;;;;;;10.70;7.40;;;;;;;-147.86;100.00;50239.31;105635;1257;60293;-51
2023/11/03 15:36:25;;;;;;;9.00;7.30;;;;;;;-147.86;100.00;50244.02;105598;1257;72921;-49
2023/11/03 15:38:56;;;;;;;12.60;8.20;;;;;;;-147.86;100.00;50236.96;105631;1260;64988;-49
2023/11/03 15:41:25;;;;;;;12.80;8.10;;;;;;;-147.86;100.00;50258.54;105659;1257;72594;-51
2023/11/03 15:43:55;;;;;;;10.00;7.30;;;;;;;-147.86;100.00;50247.16;105658;1254;61509;-52
2023/11/03 15:46:23;;;;;;;9.00;7.60;;;;;;;-147.86;100.00;50246.38;105627;1256;60984;-51
2023/11/03 15:48:51;;;;;;;13.30;8.10;;;;;;;-147.86;100.00;50260.11;105645;1257;71511;-50
2023/11/03 15:51:21;;;;;;;9.40;7.60;;;;;;;-147.86;100.00;50253.44;105599;1259;65752;-50
2023/11/03 15:53:52;;;;;;;8.70;7.30;;;;;;;-147.86;100.00;50257.75;105645;1257;72740;-52
2023/11/03 15:56:19;;;;;;;10.70;7.90;;;;;;;-147.86;100.00;50251.48;105648;1259;61107;-52
2023/11/03 15:58:46;;;;;;;10.00;7.90;;;;;;;-147.86;100.00;50247.55;105668;1257;59737;-51
2023/11/03 16:01:13;;;;;;;10.30;8.40;;;;;;;-147.86;100.00;50258.14;105617;1258;72792;-49
2023/11/03 16:03:43;;;;;;;9.10;8.00;;;;;;;-147.86;100.00;50244.80;105629;1259;64859;-49
2023/11/03 16:06:12;;;;;;;12.50;8.00;;;;;;;-147.86;100.00;50265.21;105617;1257;72391;-49
2023/11/03 16:08:39;;;;;;;10.00;8.00;;;;;;;-147.86;100.00;50257.36;105610;1259;62353;-49
2023/11/03 16:11:08;;;;;;;12.70;7.50;;;;;;;-147.86;100.00;50260.11;105576;1259;61017;-48
2023/11/03 16:13:35;;;;;;;13.60;8.20;;;;;;;-147.86;100.00;50267.95;105649;1256;74129;-51
2023/11/03 16:16:05;;;;;;;12.60;7.90;;;;;;;-147.86;100.00;50246.38;105611;1259;65284;-51
2023/11/03 16:18:33;;;;;;;15.60;8.10;;;;;;;-147.86;100.00;50257.75;105611;1254;71574;-49
2023/11/03 16:21:00;;;;;;;10.10;8.20;;;;;;;-147.86;100.00;50261.68;105721;1258;63090;-49
2023/11/03 16:23:27;;;;;;;9.50;7.50;;;;;;;-147.86;100.00;50258.14;105736;1257;60544;-48
2023/11/03 16:25:55;;;;;;;12.70;7.50;;;;;;;-147.86;100.00;50260.11;105655;1255;73811;-50
2023/11/03 16:28:24;;;;;;;8.30;7.40;;;;;;;-147.86;100.00;50269.13;105706;1258;66464;-52
2023/11/03 16:30:51;;;;;;;12.00;7.80;;;;;;;-147.86;100.00;50270.70;105621;1260;72753;-50
2023/11/03 16:33:19;;;;;;;12.90;7.80;;;;;;;-147.86;100.00;50266.77;105657;1259;61523;-51
2023/11/03 16:35:46;;;;;;;10.50;8.40;;;;;;;-147.86;100.00;50249.51;105672;1255;60536;-50
2023/11/03 16:38:13;;;;;;;10.00;8.40;;;;;;;-147.86;100.00;50265.20;105651;1254;73789;-49
2023/11/03 16:40:43;;;;;;;13.70;8.20;;;;;;;-147.86;100.00;50268.74;105646;1258;65288;-47
2023/11/03 16:43:10;;;;;;;9.40;8.30;;;;;;;-147.86;100.00;50264.81;105616;1259;72444;-48
2023/11/03 16:45:38;;;;;;;15.00;8.90;;;;;;;-147.86;100.00;50274.23;105690;1259;60832;-46
2023/11/03 16:48:05;;;;;;;14.30;8.30;;;;;;;-147.86;100.00;50269.91;105630;1255;61033;-52
2023/11/03 16:50:51;;;;;;;12.30;8.30;;;;;;;-147.86;100.00;50271.87;105625;1260;73574;-51
2023/11/03 16:53:18;;;;;;;10.30;8.30;;;;;;;-147.86;100.00;50268.34;105621;1258;64734;-47
2023/11/03 16:55:49;;;;;;;12.30;8.30;;;;;;;-147.86;100.00;50264.81;105681;1257;72412;-50
2023/11/03 16:58:17;;;;;;;14.00;8.40;;;;;;;-147.86;100.00;50263.24;105669;1259;61760;-48
2023/11/03 17:00:48;;;;;;;12.20;9.20;;;;;;;-147.86;100.00;50277.37;105615;1259;60698;-46
2023/11/03 17:03:16;;;;;;;12.00;8.80;;;;;;;-147.86;100.00;50271.88;105635;1259;72640;-48
2023/11/03 17:05:43;;;;;;;12.00;8.20;;;;;;;-147.86;100.00;50284.82;105639;1259;64396;-47
2023/11/03 17:08:11;;;;;;;9.90;8.10;;;;;;;-147.86;100.00;50267.95;105663;1259;73135;-50
2023/11/03 17:10:39;;;;;;;12.70;8.90;;;;;;;-147.86;100.00;50269.91;105615;1254;62205;-50
2023/11/03 17:13:06;;;;;;;13.10;8.30;;;;;;;-147.86;100.00;50285.61;105645;1257;60537;-48
2023/11/03 17:15:34;;;;;;;10.20;8.30;;;;;;;-147.86;100.00;50268.34;105622;1255;73512;-51
2023/11/03 17:18:01;;;;;;;13.70;8.60;;;;;;;-147.86;100.00;50259.71;105690;1259;63883;-48
2023/11/03 17:20:29;;;;;;;17.90;8.70;;;;;;;-147.86;100.00;50260.89;105643;1257;72719;-48
2023/11/03 17:22:57;;;;;;;10.20;8.10;;;;;;;-147.86;100.00;50273.45;105664;1260;62447;-48
2023/11/03 17:25:25;;;;;;;13.80;8.60;;;;;;;-147.86;100.00;50276.19;105671;1259;60543;-52
2023/11/03 17:27:53;;;;;;;11.80;9.10;;;;;;;-147.86;100.00;50271.48;105648;1257;73322;-53
2023/11/03 17:30:21;;;;;;;13.60;8.90;;;;;;;-147.86;100.00;50267.55;105604;1258;65110;-51
2023/11/03 17:32:48;;;;;;;15.40;9.70;;;;;;;-147.86;100.00;50279.32;105643;1259;73560;-49
2023/11/03 17:35:22;;;;;;;14.10;9.40;;;;;;;-147.86;100.00;50271.88;105613;1259;62679;-50
2023/11/03 17:37:56;;;;;;;13.20;8.90;;;;;;;-147.86;100.00;50283.64;105641;1258;60743;-51
2023/11/03 17:40:25;;;;;;;12.20;8.90;;;;;;;-147.86;100.00;50284.43;105658;1259;72844;-52
2023/11/03 17:42:52;;;;;;;13.10;8.90;;;;;;;-147.86;100.00;50265.99;105410;1260;65254;-49
2023/11/03 17:45:19;;;;;;;14.40;9.50;;;;;;;-147.86;100.00;50265.21;105484;1259;71913;-54
2023/11/03 17:47:47;;;;;;;14.80;9.70;;;;;;;-147.86;100.00;50265.99;105669;1260;62219;-49
2023/11/03 17:50:17;;;;;;;13.40;9.30;;;;;;;-147.86;100.00;50274.62;105721;1257;60931;-47
2023/11/03 17:52:44;;;;;;;15.10;9.00;;;;;;;-147.86;100.00;50268.74;105647;1258;73150;-52
2023/11/03 17:55:13;;;;;;;16.70;9.30;;;;;;;-147.86;100.00;50280.89;105626;1261;64929;-49
2023/11/03 17:57:45;;;;;;;11.40;9.40;;;;;;;-147.86;100.00;50274.62;105681;1259;73698;-48
2023/11/03 18:00:14;;;;;;;17.10;9.40;;;;;;;-147.86;100.00;50272.66;105674;1258;63196;-52
2023/11/03 18:02:42;;;;;;;12.20;9.40;;;;;;;-147.86;100.00;50276.19;105626;1260;60341;-53
2023/11/03 18:05:13;;;;;;;15.60;8.80;;;;;;;-147.86;100.00;50280.11;105584;1257;74770;-49
2023/11/03 18:07:44;;;;;;;11.10;9.10;;;;;;;-147.86;100.00;50275.01;105525;1258;65801;-52
2023/11/03 18:10:12;;;;;;;13.50;9.40;;;;;;;-147.86;100.00;50291.49;105443;1254;73411;-52
2023/11/03 18:12:42;;;;;;;12.50;9.10;;;;;;;-147.86;100.00;50269.91;105497;1257;62497;-51
2023/11/03 18:15:10;;;;;;;12.90;9.10;;;;;;;-147.86;100.00;50268.34;105528;1256;60415;-48
2023/11/03 18:17:38;;;;;;;10.10;8.70;;;;;;;-147.86;100.00;50278.15;105707;1260;74458;-48
2023/11/03 18:20:13;;;;;;;11.10;8.20;;;;;;;-147.86;100.00;50260.11;105658;1259;64585;-52
2023/11/03 18:22:41;;;;;;;14.00;8.90;;;;;;;-147.86;100.00;50286.39;105700;1260;73351;-52
2023/11/03 18:25:09;;;;;;;11.70;8.80;;;;;;;-147.86;100.00;50261.29;105712;1259;60560;-52
2023/11/03 18:27:38;;;;;;;13.30;9.20;;;;;;;-147.86;100.00;50276.98;105663;1255;61127;-51
2023/11/03 18:30:10;;;;;;;14.50;9.60;;;;;;;-147.86;100.00;50276.58;105613;1260;73896;-48
2023/11/03 18:32:38;;;;;;;14.20;10.10;;;;;;;-147.86;100.00;50279.32;105621;1260;65869;-50
2023/11/03 18:35:07;;;;;;;17.50;10.90;;;;;;;-147.86;100.00;50275.01;105614;1254;73123;-48
2023/11/03 18:37:39;;;;;;;15.10;11.50;;;;;;;-147.86;100.00;50272.66;105666;1260;62040;-50
2023/11/03 18:40:12;;;;;;;19.30;11.90;;;;;;;-147.86;100.00;50264.42;105628;1260;60409;-47
2023/11/03 18:42:40;;;;;;;15.60;10.80;;;;;;;-147.86;100.00;50277.76;105607;1260;74867;-51
2023/11/03 18:45:08;;;;;;;14.80;10.90;;;;;;;-147.86;100.00;50290.70;105621;1260;65417;-49
2023/11/03 18:47:35;;;;;;;15.10;11.20;;;;;;;-147.86;100.00;50269.52;105642;1259;71600;-46
2023/11/03 18:50:02;;;;;;;17.40;11.20;;;;;;;-147.86;100.00;50279.72;105655;1260;63397;-47
2023/11/03 18:52:34;;;;;;;20.30;11.30;;;;;;;-147.86;100.00;50273.05;105685;1260;60562;-46
2023/11/03 18:55:01;;;;;;;15.70;11.30;;;;;;;-147.86;100.00;50284.04;105620;1259;73791;-49
2023/11/03 18:57:48;;;;;;;17.20;11.70;;;;;;;-147.86;100.00;50287.18;105659;1260;65218;-52
2023/11/03 19:00:20;;;;;;;16.30;10.70;;;;;;;-147.86;100.00;50290.31;105687;1258;72500;-52
2023/11/03 19:03:07;;;;;;;22.40;11.20;;;;;;;-147.86;100.00;50289.13;105589;1259;62720;-50
2023/11/03 19:05:39;;;;;;;17.90;12.00;;;;;;;-147.86;100.00;50279.32;105665;1254;60524;-51
2023/11/03 19:08:27;;;;;;;13.90;10.60;;;;;;;-147.86;100.00;50272.27;105607;1260;74664;-47
2023/11/03 19:10:54;;;;;;;20.70;11.80;;;;;;;-147.86;100.00;50273.84;105653;1259;64920;-47
2023/11/03 19:13:21;;;;;;;18.40;11.20;;;;;;;-147.86;100.00;50264.03;105739;1256;71111;-46
2023/11/03 19:15:52;;;;;;;17.60;12.40;;;;;;;-147.86;100.00;50269.13;105624;1259;62859;-49
2023/11/03 19:18:20;;;;;;;20.40;12.80;;;;;;;-147.86;100.00;50269.91;105618;1257;60540;-50
2023/11/03 19:20:48;;;;;;;21.50;12.10;;;;;;;-147.86;100.00;50254.22;105618;1260;74056;-50
2023/11/03 19:23:15;;;;;;;20.60;13.40;;;;;;;-147.86;100.00;50254.22;105650;1254;65768;-48
2023/11/03 19:25:42;;;;;;;19.60;12.40;;;;;;;-147.86;100.00;50260.49;105644;1260;72224;-50
2023/11/03 19:28:12;;;;;;;19.60;12.80;;;;;;;-147.86;100.00;50264.03;105562;1263;62345;-50
2023/11/03 19:30:40;;;;;;;16.50;12.30;;;;;;;-147.86;100.00;50240.49;105629;1260;60536;-51
2023/11/03 19:33:09;;;;;;;21.00;12.90;;;;;;;-147.86;100.00;50240.49;105649;1260;72801;-49
2023/11/03 19:35:43;;;;;;;18.70;12.30;;;;;;;-147.86;100.00;50231.47;105634;1259;65192;-50
2023/11/03 19:38:10;;;;;;;23.20;13.50;;;;;;;-147.86;100.00;50234.21;105615;1259;73036;-50
2023/11/03 19:40:37;;;;;;;24.50;13.40;;;;;;;-147.86;100.00;50229.12;105616;1258;62457;-49
2023/11/03 19:43:04;;;;;;;23.70;13.90;;;;;;;-147.86;100.00;50245.20;105639;1257;60447;-51
2023/11/03 19:45:32;;;;;;;26.50;14.30;;;;;;;-147.86;100.00;50248.34;105598;1257;74108;-51
2023/11/03 19:47:59;;;;;;;26.40;13.20;;;;;;;-147.86;100.00;50237.35;105655;1258;65205;-50
2023/11/03 19:50:27;;;;;;;22.20;13.30;;;;;;;-147.86;100.00;50215.00;105658;1258;73833;-48
2023/11/03 19:52:54;;;;;;;20.40;12.60;;;;;;;-147.86;100.00;50231.47;105647;1260;62318;-49
2023/11/03 19:55:21;;;;;;;21.60;13.30;;;;;;;-147.86;100.00;50221.66;105650;1254;60460;-49
2023/11/03 19:57:49;;;;;;;25.20;14.90;;;;;;;-147.86;100.00;50222.05;105698;1258;74828;-49
2023/11/03 20:00:17;;;;;;;40.40;15.10;;;;;;;-147.86;100.00;50227.94;105584;1258;65592;-49
2023/11/03 20:02:45;;;;;;;27.90;14.50;;;;;;;-147.86;100.00;50224.02;105622;1257;73747;-51
2023/11/03 20:05:12;;;;;;;23.70;14.60;;;;;;;-147.86;100.00;50216.56;105629;1259;61742;-50
2023/11/03 20:07:39;;;;;;;25.90;14.60;;;;;;;-147.86;100.00;50207.15;105603;1254;61227;-46
2023/11/03 20:10:07;;;;;;;26.80;15.80;;;;;;;-147.86;100.00;50220.48;105634;1258;74181;-46
2023/11/03 20:12:35;;;;;;;23.90;15.30;;;;;;;-147.86;100.00;50238.14;105691;1260;65366;-49
2023/11/03 20:15:03;;;;;;;27.40;16.10;;;;;;;-147.86;100.00;50209.89;105678;1259;72782;-51
2023/11/03 20:17:30;;;;;;;26.70;15.30;;;;;;;-147.86;100.00;50214.60;105620;1260;61222;-52
2023/11/03 20:19:57;;;;;;;29.20;16.00;;;;;;;-147.86;100.00;50222.05;105691;1260;61417;-48
2023/11/03 20:22:24;;;;;;;27.80;16.70;;;;;;;-147.86;100.00;50229.51;105570;1258;74716;-47
2023/11/03 20:24:51;;;;;;;32.20;16.90;;;;;;;-147.86;100.00;50214.99;105602;1258;66184;-47
2023/11/03 20:27:18;;;;;;;24.70;16.50;;;;;;;-147.86;100.00;50210.29;105609;1255;72650;-49
2023/11/03 20:29:47;;;;;;;27.90;15.70;;;;;;;-147.86;100.00;50227.15;105625;1258;62921;-49
2023/11/03 20:32:15;;;;;;;23.90;15.80;;;;;;;-147.86;100.00;50222.05;105662;1254;61255;-52
2023/11/03 20:34:42;;;;;;;29.80;16.00;;;;;;;-147.86;100.00;50228.33;105635;1259;73104;-51
2023/11/03 20:37:10;;;;;;;27.80;15.90;;;;;;;-147.86;100.00;50215.39;105646;1254;65528;-51
2023/11/03 20:39:37;;;;;;;30.90;16.70;;;;;;;-147.86;100.00;50231.47;105652;1254;73440;-49
2023/11/03 20:42:06;;;;;;;24.60;16.50;;;;;;;-147.86;100.00;50226.76;105627;1259;63616;-53
2023/11/03 20:44:33;;;;;;;27.20;17.50;;;;;;;-147.86;100.00;50214.60;105626;1254;60828;-48
2023/11/03 20:47:01;;;;;;;25.90;17.00;;;;;;;-147.86;100.00;50212.64;105526;1258;73046;-49
2023/11/03 20:49:28;;;;;;;27.70;17.20;;;;;;;-147.86;100.00;50223.23;105607;1260;63845;-49
2023/11/03 20:51:56;;;;;;;30.40;17.20;;;;;;;-147.86;100.00;50219.31;105652;1260;73591;-49
2023/11/03 20:54:24;;;;;;;29.30;17.10;;;;;;;-147.86;100.00;50214.60;105617;1259;62730;-49
2023/11/03 20:56:51;;;;;;;30.10;17.60;;;;;;;-147.86;100.00;50220.48;105637;1259;61146;-48
2023/11/03 20:59:18;;;;;;;29.20;17.60;;;;;;;-147.86;100.00;50205.19;105673;1254;74725;-47
2023/11/03 21:01:50;;;;;;;32.30;16.20;;;;;;;-147.86;100.00;50189.11;105609;1258;64581;-48
2023/11/03 21:04:19;;;;;;;32.50;17.60;;;;;;;-147.86;100.00;50189.49;105668;1254;71598;-50
2023/11/03 21:06:47;;;;;;;28.80;17.40;;;;;;;-147.86;100.00;50189.10;105642;1260;62002;-53
2023/11/03 21:09:16;;;;;;;26.40;17.20;;;;;;;-147.86;100.00;50193.41;105687;1257;60444;-49
2023/11/03 21:11:43;;;;;;;26.50;17.60;;;;;;;-147.86;100.00;50188.32;105636;1259;74215;-52
2023/11/03 21:14:12;;;;;;;30.40;18.20;;;;;;;-147.86;100.00;50180.87;105702;1260;64730;-51
2023/11/03 21:16:38;;;;;;;27.20;18.60;;;;;;;-147.86;100.00;50180.87;105624;1258;72318;-51
2023/11/03 21:19:06;;;;;;;26.90;18.20;;;;;;;-147.86;100.00;50162.04;105638;1259;61743;-51
2023/11/03 21:21:34;;;;;;;30.40;18.50;;;;;;;-147.86;100.00;50182.83;105637;1254;60441;-49
2023/11/03 21:24:02;;;;;;;29.30;18.20;;;;;;;-147.86;100.00;50176.16;105649;1255;72515;-47
2023/11/03 21:26:29;;;;;;;23.40;16.70;;;;;;;-147.86;100.00;50174.59;105725;1257;66567;-49
2023/11/03 21:28:56;;;;;;;28.90;18.70;;;;;;;-147.86;100.00;50164.00;105657;1255;72619;-48
2023/11/03 21:31:24;;;;;;;26.50;18.70;;;;;;;-147.86;100.00;50174.59;105665;1259;61841;-52
2023/11/03 21:33:51;;;;;;;26.90;18.90;;;;;;;-147.86;100.00;50155.37;105675;1254;61347;-53
2023/11/03 21:36:24;;;;;;;27.60;18.80;;;;;;;-147.86;100.00;50167.93;105642;1260;73695;-52
2023/11/03 21:38:56;;;;;;;32.80;19.50;;;;;;;-147.86;100.00;50165.18;105640;1260;62280;-50
2023/11/03 21:41:23;;;;;;;31.10;18.30;;;;;;;-147.86;100.00;50162.82;105655;1258;72489;-51
2023/11/03 21:43:51;;;;;;;25.40;18.00;;;;;;;-147.86;100.00;50147.91;105668;1254;61780;-52
2023/11/03 21:46:22;;;;;;;26.40;17.70;;;;;;;-147.86;100.00;50133.01;105475;1254;60474;-50
2023/11/03 21:48:52;;;;;;;30.00;18.00;;;;;;;-147.86;100.00;50156.15;105460;1259;73648;-51
2023/11/03 21:51:20;;;;;;;28.20;18.10;;;;;;;-147.86;100.00;50145.96;105682;1260;65415;-56
2023/11/03 21:53:47;;;;;;;28.40;18.20;;;;;;;-147.86;100.00;50131.44;105674;1260;72623;-51
2023/11/03 21:56:15;;;;;;;30.40;17.90;;;;;;;-147.86;100.00;50134.58;105675;1260;60945;-51
2023/11/03 21:58:42;;;;;;;26.20;17.50;;;;;;;-147.86;100.00;50115.75;105682;1254;60482;-46
2023/11/03 22:01:09;;;;;;;29.40;18.30;;;;;;;-147.86;100.00;50125.56;105682;1260;73855;-48
2023/11/03 22:03:38;;;;;;;30.40;18.60;;;;;;;-147.86;100.00;50111.43;105629;1259;65510;-50
2023/11/03 22:06:06;;;;;;;24.60;17.30;;;;;;;-147.86;100.00;50114.57;105651;1260;72510;-47
2023/11/03 22:08:33;;;;;;;31.60;18.80;;;;;;;-147.86;100.00;50102.41;105602;1260;60553;-49
2023/11/03 22:11:00;;;;;;;26.30;18.30;;;;;;;-147.86;100.00;50124.38;105685;1254;60869;-49
2023/11/03 22:13:27;;;;;;;32.70;19.20;;;;;;;-147.86;100.00;50113.01;105658;1259;73550;-50
2023/11/03 22:15:54;;;;;;;34.10;20.20;;;;;;;-147.86;100.00;50112.23;105641;1259;64685;-52
2023/11/03 22:18:22;;;;;;;32.80;19.40;;;;;;;-147.86;100.00;50110.65;105639;1260;72673;-49
2023/11/03 22:20:49;;;;;;;28.80;19.00;;;;;;;-147.86;100.00;50089.46;105676;1259;61955;-47
2023/11/03 22:23:20;;;;;;;33.90;20.20;;;;;;;-147.86;100.00;50088.29;105627;1259;60802;-49
2023/11/03 22:25:47;;;;;;;34.10;19.50;;;;;;;-147.86;100.00;50089.86;105610;1260;73939;-52
2023/11/03 22:28:15;;;;;;;33.50;21.60;;;;;;;-147.86;100.00;50091.43;105631;1254;65352;-48
2023/11/03 22:30:42;;;;;;;36.20;23.00;;;;;;;-147.86;100.00;50091.82;105630;1254;72566;-46
2023/11/03 22:33:11;;;;;;;40.20;22.90;;;;;;;-147.86;100.00;50076.91;105693;1258;61826;-49
2023/11/03 22:35:40;;;;;;;37.50;22.30;;;;;;;-147.86;100.00;50094.96;105690;1254;60444;-47
2023/11/03 22:38:09;;;;;;;40.50;23.60;;;;;;;-147.86;100.00;50055.34;105705;1259;73890;-49
2023/11/03 22:40:36;;;;;;;37.30;22.90;;;;;;;-147.86;100.00;50094.96;105665;1258;64537;-50
2023/11/03 22:43:04;;;;;;;36.10;23.30;;;;;;;-147.86;100.00;50076.13;105658;1254;72972;-49
2023/11/03 22:45:32;;;;;;;41.10;23.00;;;;;;;-147.86;100.00;50078.09;105627;1260;62015;-51
2023/11/03 22:47:59;;;;;;;36.90;22.10;;;;;;;-147.86;100.00;50072.99;105636;1255;60392;-47
2023/11/03 22:50:30;;;;;;;45.40;23.70;;;;;;;-147.86;100.00;50072.99;105647;1257;72852;-48
2023/11/03 22:52:57;;;;;;;37.50;23.80;;;;;;;-147.86;100.00;50067.50;105718;1259;65274;-51
2023/11/03 22:55:25;;;;;;;41.30;23.90;;;;;;;-147.86;100.00;50061.23;105640;1255;72690;-46